createdAt,value
2019-05-18T00:01:06.696Z,8.21
2019-05-18T00:04:14.073Z,8.20
2019-05-18T00:07:21.328Z,8.21
2019-05-18T00:10:28.776Z,8.18
2019-05-18T00:13:36.361Z,8.08
2019-05-18T00:16:44.069Z,8.03
2019-05-18T00:19:51.585Z,8.00
2019-05-18T00:22:59.268Z,7.92
2019-05-18T00:26:06.625Z,7.87
2019-05-18T00:29:14.051Z,7.82
2019-05-18T00:32:21.455Z,8.03
2019-05-18T00:35:29.370Z,7.80
2019-05-18T00:38:36.557Z,7.67
2019-05-18T00:41:45.538Z,7.57
2019-05-18T00:44:53.175Z,7.54
2019-05-18T00:48:00.346Z,7.41
2019-05-18T00:51:08.074Z,7.34
2019-05-18T00:54:15.863Z,7.27
2019-05-18T00:57:23.473Z,7.29
2019-05-18T01:00:30.827Z,7.31
2019-05-18T01:03:38.125Z,7.20
2019-05-18T01:06:45.718Z,7.20
2019-05-18T01:09:53.194Z,7.33
2019-05-18T01:13:00.681Z,7.17
2019-05-18T01:16:08.047Z,7.13
2019-05-18T01:19:15.546Z,7.27
2019-05-18T01:22:22.710Z,7.23
2019-05-18T01:25:30.207Z,7.25
2019-05-18T01:28:37.820Z,7.33
2019-05-18T01:31:45.297Z,7.32
2019-05-18T01:34:52.577Z,7.35
2019-05-18T01:38:00.197Z,7.24
2019-05-18T01:41:07.608Z,7.28
2019-05-18T01:44:14.977Z,7.26
2019-05-18T01:47:22.886Z,7.27
2019-05-18T01:50:30.146Z,7.13
2019-05-18T01:53:37.676Z,7.10
2019-05-18T01:56:44.962Z,7.09
2019-05-18T01:59:52.561Z,7.05
2019-05-18T02:03:00.277Z,6.98
2019-05-18T02:06:07.449Z,6.94
2019-05-18T02:09:14.742Z,6.95
2019-05-18T02:12:22.003Z,7.00
2019-05-18T02:15:29.278Z,6.87
2019-05-18T02:18:36.926Z,6.76
2019-05-18T02:21:44.191Z,6.70
2019-05-18T02:24:52.840Z,6.61
2019-05-18T02:28:00.004Z,6.68
2019-05-18T02:31:08.243Z,6.67
2019-05-18T02:34:15.508Z,6.74
2019-05-18T02:37:22.822Z,6.81
2019-05-18T02:40:30.423Z,6.72
2019-05-18T02:43:37.685Z,6.67
2019-05-18T02:46:44.859Z,6.71
2019-05-18T02:49:52.513Z,6.82
2019-05-18T02:52:59.778Z,6.81
2019-05-18T02:56:07.607Z,6.82
2019-05-18T02:59:14.979Z,6.76
2019-05-18T03:02:22.137Z,6.90
2019-05-18T03:05:29.720Z,6.87
2019-05-18T03:08:37.196Z,6.87
2019-05-18T03:11:44.971Z,6.97
2019-05-18T03:14:52.611Z,7.10
2019-05-18T03:18:00.081Z,7.23
2019-05-18T03:21:07.587Z,7.07
2019-05-18T03:24:15.168Z,6.78
2019-05-18T03:27:22.618Z,6.65
2019-05-18T03:30:29.889Z,6.58
2019-05-18T03:33:37.091Z,6.57
2019-05-18T03:36:44.552Z,6.54
2019-05-18T03:39:51.938Z,6.64
2019-05-18T03:42:59.281Z,6.95
2019-05-18T03:46:06.466Z,6.91
2019-05-18T03:49:26.135Z,6.74
2019-05-18T03:52:23.194Z,6.80
2019-05-18T03:55:31.322Z,6.88
2019-05-18T03:58:38.624Z,6.59
2019-05-18T04:01:46.103Z,6.54
2019-05-18T04:04:53.392Z,6.60
2019-05-18T04:08:00.686Z,6.66
2019-05-18T04:11:08.374Z,6.64
2019-05-18T04:14:15.663Z,6.67
2019-05-18T04:17:23.214Z,6.79
2019-05-18T04:20:31.400Z,6.92
2019-05-18T04:23:38.804Z,7.08
2019-05-18T04:26:46.402Z,7.28
2019-05-18T04:29:53.579Z,7.36
2019-05-18T04:33:00.971Z,7.54
2019-05-18T04:36:08.340Z,7.69
2019-05-18T04:39:16.005Z,7.87
2019-05-18T04:42:23.794Z,8.02
2019-05-18T04:45:32.160Z,8.33
2019-05-18T04:48:39.767Z,8.49
2019-05-18T04:51:47.480Z,8.64
2019-05-18T04:54:54.726Z,8.63
2019-05-18T04:58:02.568Z,8.54
2019-05-18T05:01:10.098Z,8.56
2019-05-18T05:04:17.736Z,8.48
2019-05-18T05:07:24.948Z,8.56
2019-05-18T05:10:33.291Z,8.65
2019-05-18T05:13:42.881Z,8.82
2019-05-18T05:16:51.121Z,9.26
2019-05-18T05:19:58.938Z,9.43
2019-05-18T05:23:08.549Z,9.61
2019-05-18T05:26:16.471Z,9.90
2019-05-18T05:29:24.112Z,10.01
2019-05-18T05:32:32.651Z,10.17
2019-05-18T05:35:41.144Z,10.29
2019-05-18T05:38:49.280Z,10.67
2019-05-18T05:41:57.431Z,10.92
2019-05-18T05:45:08.183Z,11.46
2019-05-18T05:48:16.373Z,12.77
2019-05-18T05:51:23.840Z,14.07
2019-05-18T05:54:31.501Z,14.30
2019-05-18T05:57:38.788Z,14.42
2019-05-18T06:00:46.654Z,14.07
2019-05-18T06:03:54.025Z,14.39
2019-05-18T06:07:01.421Z,14.87
2019-05-18T06:10:10.264Z,16.50
2019-05-18T06:13:17.697Z,17.58
2019-05-18T06:16:25.530Z,15.75
2019-05-18T06:19:33.177Z,17.79
2019-05-18T06:22:40.632Z,19.39
2019-05-18T06:25:48.545Z,18.13
2019-05-18T06:28:56.221Z,19.71
2019-05-18T06:32:03.793Z,19.90
2019-05-18T06:35:12.256Z,19.99
2019-05-18T06:38:19.946Z,20.28
2019-05-18T06:41:27.347Z,21.76
2019-05-18T06:44:34.845Z,22.14
2019-05-18T06:47:42.048Z,19.00
2019-05-18T06:50:50.234Z,20.57
2019-05-18T06:54:00.765Z,21.83
2019-05-18T06:57:10.754Z,23.06
2019-05-18T07:00:18.203Z,18.85
2019-05-18T07:03:26.248Z,19.10
2019-05-18T07:06:33.613Z,18.92
2019-05-18T07:09:41.745Z,17.04
2019-05-18T07:12:49.327Z,16.55
2019-05-18T07:15:56.641Z,18.86
2019-05-18T07:19:04.079Z,20.17
2019-05-18T07:22:11.560Z,19.59
2019-05-18T07:25:19.055Z,19.01
2019-05-18T07:28:26.953Z,21.98
2019-05-18T07:31:34.459Z,20.36
2019-05-18T07:34:42.052Z,22.67
2019-05-18T07:37:49.939Z,19.57
2019-05-18T07:40:57.363Z,20.07
2019-05-18T07:44:04.870Z,21.70
2019-05-18T07:47:12.203Z,21.21
2019-05-18T07:50:20.121Z,19.34
2019-05-18T07:53:28.473Z,21.05
2019-05-18T07:56:36.117Z,19.34
2019-05-18T07:59:44.435Z,20.06
2019-05-18T08:02:51.752Z,22.52
2019-05-18T08:05:59.801Z,20.59
2019-05-18T08:09:07.427Z,19.46
2019-05-18T08:12:14.893Z,18.91
2019-05-18T08:15:22.318Z,18.95
2019-05-18T08:18:29.593Z,19.09
2019-05-18T08:21:51.883Z,19.50
2019-05-18T08:24:48.814Z,18.51
2019-05-18T08:27:56.099Z,19.99
2019-05-18T08:31:03.498Z,19.48
2019-05-18T08:34:11.227Z,20.02
2019-05-18T08:37:18.713Z,20.52
2019-05-18T08:40:26.526Z,21.03
2019-05-18T08:43:34.290Z,20.31
2019-05-18T08:46:42.243Z,20.03
2019-05-18T08:49:49.726Z,19.04
2019-05-18T08:52:57.541Z,18.71
2019-05-18T08:56:05.192Z,19.51
2019-05-18T08:59:13.709Z,20.77
2019-05-18T09:02:21.879Z,22.32
2019-05-18T09:05:29.886Z,22.05
2019-05-18T09:08:37.913Z,21.48
2019-05-18T09:11:45.911Z,21.55
2019-05-18T09:14:54.042Z,20.88
2019-05-18T09:18:04.904Z,20.09
2019-05-18T09:21:13.852Z,21.79
2019-05-18T09:24:22.040Z,21.88
2019-05-18T09:27:30.219Z,21.03
2019-05-18T09:30:41.180Z,20.49
2019-05-18T09:33:48.208Z,21.80
2019-05-18T09:36:55.690Z,22.08
2019-05-18T09:40:04.039Z,21.28
2019-05-18T09:43:12.088Z,22.08
2019-05-18T09:46:20.258Z,22.46
2019-05-18T09:49:31.079Z,23.50
2019-05-18T09:52:45.398Z,22.50
2019-05-18T09:55:49.682Z,22.68
2019-05-18T10:02:06.462Z,23.07
2019-05-18T10:05:14.130Z,23.83
2019-05-18T10:08:21.366Z,24.12
2019-05-18T10:11:29.209Z,23.65
2019-05-18T10:14:37.093Z,23.58
2019-05-18T10:20:49.888Z,23.44
2019-05-18T10:23:57.260Z,23.99
2019-05-18T10:27:04.528Z,24.45
2019-05-18T10:30:12.935Z,24.41
2019-05-18T10:33:20.449Z,24.45
2019-05-18T10:36:28.215Z,24.64
2019-05-18T10:39:38.735Z,24.27
2019-05-18T10:42:45.536Z,24.38
2019-05-18T10:45:53.251Z,23.91
2019-05-18T10:49:01.178Z,23.26
2019-05-18T10:52:09.056Z,23.07
2019-05-18T10:55:16.713Z,22.78
2019-05-18T10:58:24.768Z,23.28
2019-05-18T11:01:32.431Z,22.31
2019-05-18T11:04:40.282Z,22.04
2019-05-18T11:07:49.027Z,21.88
2019-05-18T11:10:56.819Z,21.66
2019-05-18T11:14:05.015Z,21.90
2019-05-18T11:17:12.602Z,21.27
2019-05-18T11:20:20.421Z,21.24
2019-05-18T11:23:41.458Z,20.98
2019-05-18T11:26:38.707Z,21.80
2019-05-18T11:29:46.270Z,22.87
2019-05-18T11:32:54.298Z,23.39
2019-05-18T11:36:01.811Z,22.98
2019-05-18T11:39:09.528Z,23.25
2019-05-18T11:42:17.293Z,22.74
2019-05-18T11:45:25.202Z,21.95
2019-05-18T11:48:32.571Z,22.47
2019-05-18T11:51:40.301Z,22.90
2019-05-18T11:54:48.101Z,23.28
2019-05-18T11:57:56.022Z,22.21
2019-05-18T12:01:03.509Z,21.96
2019-05-18T12:04:12.454Z,22.21
2019-05-18T12:07:19.720Z,22.35
2019-05-18T12:10:27.621Z,22.58
2019-05-18T12:13:35.494Z,22.78
2019-05-18T12:16:42.808Z,22.89
2019-05-18T12:19:49.962Z,22.81
2019-05-18T12:22:57.862Z,23.05
2019-05-18T12:26:06.298Z,23.30
2019-05-18T12:29:15.086Z,22.81
2019-05-18T12:32:23.144Z,23.18
2019-05-18T12:35:31.242Z,23.08
2019-05-18T12:38:39.149Z,22.82
2019-05-18T12:41:46.522Z,22.91
2019-05-18T12:44:54.282Z,23.82
2019-05-18T12:48:03.412Z,24.12
2019-05-18T12:51:11.158Z,23.78
2019-05-18T12:54:29.030Z,24.59
2019-05-18T12:57:28.147Z,25.09
2019-05-18T13:00:35.515Z,24.87
2019-05-18T13:03:42.939Z,25.49
2019-05-18T13:06:50.202Z,24.83
2019-05-18T13:09:58.557Z,23.94
2019-05-18T13:13:06.132Z,24.28
2019-05-18T13:16:14.083Z,24.62
2019-05-18T13:19:21.575Z,24.11
2019-05-18T13:22:28.965Z,24.05
2019-05-18T13:25:36.207Z,23.30
2019-05-18T13:28:43.590Z,23.50
2019-05-18T13:31:51.326Z,23.50
2019-05-18T13:34:59.039Z,22.49
2019-05-18T13:38:07.790Z,23.02
2019-05-18T13:41:16.641Z,23.60
2019-05-18T13:44:25.395Z,23.17
2019-05-18T13:47:32.980Z,23.08
2019-05-18T13:50:40.684Z,22.92
2019-05-18T13:53:48.017Z,22.80
2019-05-18T13:56:55.510Z,22.62
2019-05-18T14:00:04.608Z,23.34
2019-05-18T14:03:12.460Z,23.42
2019-05-18T14:06:20.797Z,22.92
2019-05-18T14:09:28.430Z,22.70
2019-05-18T14:12:35.854Z,22.79
2019-05-18T14:15:43.677Z,23.21
2019-05-18T14:18:51.754Z,23.60
2019-05-18T14:21:59.582Z,23.90
2019-05-18T14:25:18.670Z,24.01
2019-05-18T14:28:17.542Z,24.11
2019-05-18T14:31:25.859Z,23.50
2019-05-18T14:34:33.710Z,23.14
2019-05-18T14:37:41.676Z,22.66
2019-05-18T14:40:49.647Z,22.52
2019-05-18T14:43:57.262Z,22.80
2019-05-18T14:47:05.265Z,23.27
2019-05-18T14:50:13.616Z,23.53
2019-05-18T14:53:21.646Z,23.47
2019-05-18T14:56:29.376Z,23.52
2019-05-18T14:59:37.094Z,23.59
2019-05-18T15:02:44.607Z,23.47
2019-05-18T15:05:51.979Z,23.46
2019-05-18T15:08:59.266Z,22.90
2019-05-18T15:12:06.776Z,22.58
2019-05-18T15:15:16.019Z,22.85
2019-05-18T15:18:23.946Z,22.51
2019-05-18T15:21:31.726Z,22.42
2019-05-18T15:24:39.462Z,22.42
2019-05-18T15:27:47.390Z,22.27
2019-05-18T15:30:55.192Z,22.34
2019-05-18T15:34:02.635Z,22.35
2019-05-18T15:37:10.442Z,22.42
2019-05-18T15:40:19.868Z,22.64
2019-05-18T15:43:28.415Z,22.60
2019-05-18T15:46:38.720Z,22.51
2019-05-18T15:49:46.426Z,22.45
2019-05-18T15:52:53.774Z,22.11
2019-05-18T15:56:05.616Z,21.99
2019-05-18T15:59:10.933Z,21.91
2019-05-18T16:02:18.812Z,21.91
2019-05-18T16:10:06.590Z,21.51
2019-05-18T16:13:14.909Z,21.44
2019-05-18T16:16:22.562Z,21.31
2019-05-18T16:19:30.251Z,21.23
2019-05-18T16:22:37.584Z,21.20
2019-05-18T16:25:45.251Z,21.20
2019-05-18T16:28:53.123Z,21.12
2019-05-18T16:32:00.878Z,21.13
2019-05-18T16:35:09.400Z,21.21
2019-05-18T16:38:16.786Z,21.15
2019-05-18T16:41:24.269Z,21.13
2019-05-18T16:44:31.889Z,21.20
2019-05-18T16:47:39.688Z,23.32
2019-05-18T16:50:47.095Z,25.33
2019-05-18T16:53:54.679Z,25.94
2019-05-18T16:57:02.177Z,25.74
2019-05-18T17:00:11.317Z,26.11
2019-05-18T17:03:18.900Z,26.42
2019-05-18T17:06:26.699Z,25.30
2019-05-18T17:09:34.833Z,25.43
2019-05-18T17:12:42.131Z,25.86
2019-05-18T17:15:49.933Z,25.05
2019-05-18T17:18:57.714Z,24.93
2019-05-18T17:22:05.213Z,23.92
2019-05-18T17:25:13.342Z,25.02
2019-05-18T17:28:20.641Z,27.16
2019-05-18T17:31:28.166Z,26.17
2019-05-18T17:34:35.764Z,23.78
2019-05-18T17:37:43.152Z,22.16
2019-05-18T17:40:51.582Z,21.16
2019-05-18T17:43:58.953Z,20.70
2019-05-18T17:47:06.365Z,20.30
2019-05-18T17:50:14.696Z,20.16
2019-05-18T17:53:22.451Z,19.91
2019-05-18T17:56:30.066Z,19.69
2019-05-18T17:59:38.260Z,19.47
2019-05-18T18:02:48.112Z,19.26
2019-05-18T18:05:55.282Z,19.10
2019-05-18T18:09:05.317Z,18.93
2019-05-18T18:12:12.662Z,18.75
2019-05-18T18:15:20.658Z,18.61
2019-05-18T18:18:28.244Z,18.49
2019-05-18T18:21:36.354Z,18.40
2019-05-18T18:24:43.916Z,18.29
2019-05-18T18:27:51.677Z,18.11
2019-05-18T18:30:59.615Z,18.04
2019-05-18T18:34:07.668Z,17.83
2019-05-18T18:37:15.037Z,17.64
2019-05-18T18:40:22.656Z,17.53
2019-05-18T18:43:30.671Z,17.48
2019-05-18T18:46:38.050Z,17.23
2019-05-18T18:49:45.352Z,17.03
2019-05-18T18:52:52.917Z,16.94
2019-05-18T18:56:00.416Z,17.06
2019-05-18T18:59:08.492Z,16.76
2019-05-18T19:02:16.223Z,16.75
2019-05-18T19:05:24.076Z,16.59
2019-05-18T19:08:31.477Z,16.50
2019-05-18T19:11:39.753Z,16.34
2019-05-18T19:14:47.181Z,16.13
2019-05-18T19:17:55.123Z,16.12
2019-05-18T19:21:03.122Z,16.20
2019-05-18T19:24:10.474Z,16.08
2019-05-18T19:27:18.240Z,15.75
2019-05-18T19:30:25.681Z,15.66
2019-05-18T19:33:33.045Z,15.48
2019-05-18T19:36:40.277Z,15.35
2019-05-18T19:39:48.281Z,15.11
2019-05-18T19:42:55.511Z,14.96
2019-05-18T19:46:03.339Z,14.73
2019-05-18T19:49:11.152Z,14.47
2019-05-18T19:52:19.171Z,14.31
2019-05-18T19:55:26.365Z,14.14
2019-05-18T19:58:37.274Z,14.01
2019-05-18T20:01:44.807Z,13.86
2019-05-18T20:05:13.258Z,13.65
2019-05-18T20:08:32.410Z,13.57
2019-05-18T20:11:39.965Z,13.49
2019-05-18T20:14:48.308Z,13.40
2019-05-18T20:17:55.830Z,13.31
2019-05-18T20:21:03.454Z,13.22
2019-05-18T20:24:10.782Z,13.11
2019-05-18T20:27:18.127Z,13.15
2019-05-18T20:30:25.885Z,13.56
2019-05-18T20:33:33.940Z,13.50
2019-05-18T20:36:41.421Z,13.09
2019-05-18T20:39:48.887Z,12.72
2019-05-18T20:42:56.299Z,12.47
2019-05-18T20:46:04.175Z,12.31
2019-05-18T20:49:11.802Z,12.20
2019-05-18T20:52:19.483Z,12.15
2019-05-18T20:55:26.794Z,12.08
2019-05-18T20:58:40.051Z,12.09
2019-05-18T21:01:43.581Z,12.06
2019-05-18T21:04:51.311Z,12.01
2019-05-18T21:07:58.755Z,12.02
2019-05-18T21:11:06.613Z,12.01
2019-05-18T21:14:13.912Z,12.02
2019-05-18T21:17:21.703Z,11.90
2019-05-18T21:20:29.253Z,11.75
2019-05-18T21:23:36.655Z,11.74
2019-05-18T21:26:44.192Z,11.61
2019-05-18T21:29:51.474Z,11.50
2019-05-18T21:32:59.182Z,11.55
2019-05-18T21:36:06.600Z,11.44
2019-05-18T21:39:13.973Z,11.80
2019-05-18T21:42:21.174Z,11.38
2019-05-18T21:45:28.655Z,11.49
2019-05-18T21:48:36.080Z,11.14
2019-05-18T21:51:43.482Z,10.79
2019-05-18T21:54:50.940Z,10.62
2019-05-18T21:57:58.252Z,10.56
2019-05-18T22:01:06.555Z,10.48
2019-05-18T22:04:14.057Z,10.46
2019-05-18T22:07:21.782Z,10.47
2019-05-18T22:10:29.295Z,10.46
2019-05-18T22:13:36.748Z,10.41
2019-05-18T22:16:44.551Z,10.93
2019-05-18T22:19:52.465Z,10.47
2019-05-18T22:23:00.388Z,10.38
2019-05-18T22:26:08.056Z,10.09
2019-05-18T22:29:15.548Z,10.06
2019-05-18T22:32:22.842Z,9.94
2019-05-18T22:35:30.270Z,9.91
2019-05-18T22:38:37.630Z,9.98
2019-05-18T22:41:45.094Z,9.91
2019-05-18T22:44:52.719Z,9.76
2019-05-18T22:48:00.342Z,9.72
2019-05-18T22:51:07.717Z,9.65
2019-05-18T22:54:15.416Z,9.63
2019-05-18T22:57:23.177Z,9.60
2019-05-18T23:00:30.849Z,9.64
2019-05-18T23:03:38.232Z,9.59
2019-05-18T23:06:45.713Z,9.57
2019-05-18T23:09:53.785Z,9.54
2019-05-18T23:13:01.455Z,9.57
2019-05-18T23:16:08.929Z,9.44
2019-05-18T23:19:16.231Z,9.28
2019-05-18T23:22:23.734Z,9.17
2019-05-18T23:25:31.105Z,9.14
2019-05-18T23:28:38.902Z,9.08
2019-05-18T23:31:46.499Z,9.14
2019-05-18T23:34:54.102Z,9.15
2019-05-18T23:38:01.499Z,9.16
2019-05-18T23:41:08.888Z,9.17
2019-05-18T23:44:16.224Z,9.09
2019-05-18T23:47:23.402Z,9.10
2019-05-18T23:50:31.106Z,9.00
2019-05-18T23:53:38.272Z,9.04
2019-05-18T23:56:46.788Z,9.06
2019-05-18T23:59:54.378Z,9.13
